sensor_id;sensor_type;location;lat;lon;timestamp;temperature;humidity
65369;HTU21D;51970;53.484;49.488;2023-08-06T00:00:55;23.96;68.91
65369;HTU21D;51970;53.484;49.488;2023-08-06T00:03:21;23.95;68.94
65369;HTU21D;51970;53.484;49.488;2023-08-06T00:05:47;23.89;69.05
65369;HTU21D;51970;53.484;49.488;2023-08-06T00:08:13;23.87;69.34
65369;HTU21D;51970;53.484;49.488;2023-08-06T00:10:40;23.81;69.64
65369;HTU21D;51970;53.484;49.488;2023-08-06T00:13:07;23.74;69.92
65369;HTU21D;51970;53.484;49.488;2023-08-06T00:15:33;23.69;70.00
65369;HTU21D;51970;53.484;49.488;2023-08-06T00:17:59;23.64;70.26
65369;HTU21D;51970;53.484;49.488;2023-08-06T00:20:25;23.58;70.54
65369;HTU21D;51970;53.484;49.488;2023-08-06T00:22:51;23.52;70.71
65369;HTU21D;51970;53.484;49.488;2023-08-06T00:25:17;23.47;70.87
65369;HTU21D;51970;53.484;49.488;2023-08-06T00:27:43;23.44;70.96
65369;HTU21D;51970;53.484;49.488;2023-08-06T00:30:09;23.40;71.18
65369;HTU21D;51970;53.484;49.488;2023-08-06T00:32:35;23.36;71.30
65369;HTU21D;51970;53.484;49.488;2023-08-06T00:35:07;23.35;71.18
65369;HTU21D;51970;53.484;49.488;2023-08-06T00:37:33;23.37;71.06
65369;HTU21D;51970;53.484;49.488;2023-08-06T00:39:59;23.34;71.11
65369;HTU21D;51970;53.484;49.488;2023-08-06T00:42:25;23.32;71.04
65369;HTU21D;51970;53.484;49.488;2023-08-06T00:44:51;23.34;70.97
65369;HTU21D;51970;53.484;49.488;2023-08-06T00:47:18;23.30;70.93
65369;HTU21D;51970;53.484;49.488;2023-08-06T00:49:44;23.28;70.97
65369;HTU21D;51970;53.484;49.488;2023-08-06T00:52:10;23.27;70.77
65369;HTU21D;51970;53.484;49.488;2023-08-06T00:54:36;23.28;70.62
65369;HTU21D;51970;53.484;49.488;2023-08-06T00:57:03;23.27;70.66
65369;HTU21D;51970;53.484;49.488;2023-08-06T00:59:31;23.24;70.78
65369;HTU21D;51970;53.484;49.488;2023-08-06T01:01:57;23.22;71.02
65369;HTU21D;51970;53.484;49.488;2023-08-06T01:04:23;23.16;71.41
65369;HTU21D;51970;53.484;49.488;2023-08-06T01:15:51;23.09;71.56
65369;HTU21D;51970;53.484;49.488;2023-08-06T01:17:45;23.14;70.91
65369;HTU21D;51970;53.484;49.488;2023-08-06T01:20:12;23.24;70.42
65369;HTU21D;51970;53.484;49.488;2023-08-06T01:22:38;23.28;70.30
65369;HTU21D;51970;53.484;49.488;2023-08-06T01:25:05;23.36;69.89
65369;HTU21D;51970;53.484;49.488;2023-08-06T01:27:45;23.64;69.00
65369;HTU21D;51970;53.484;49.488;2023-08-06T01:30:16;24.09;67.61
65369;HTU21D;51970;53.484;49.488;2023-08-06T01:32:49;24.44;66.30
65369;HTU21D;51970;53.484;49.488;2023-08-06T01:35:22;24.82;64.70
65369;HTU21D;51970;53.484;49.488;2023-08-06T01:37:48;25.04;63.75
65369;HTU21D;51970;53.484;49.488;2023-08-06T01:40:15;25.40;62.99
65369;HTU21D;51970;53.484;49.488;2023-08-06T01:42:41;25.68;61.99
65369;HTU21D;51970;53.484;49.488;2023-08-06T01:45:08;25.90;61.41
65369;HTU21D;51970;53.484;49.488;2023-08-06T01:47:35;26.13;60.45
65369;HTU21D;51970;53.484;49.488;2023-08-06T01:50:01;26.35;59.95
65369;HTU21D;51970;53.484;49.488;2023-08-06T01:52:28;26.58;59.32
65369;HTU21D;51970;53.484;49.488;2023-08-06T01:54:54;26.90;58.20
65369;HTU21D;51970;53.484;49.488;2023-08-06T01:57:20;26.96;57.74
65369;HTU21D;51970;53.484;49.488;2023-08-06T01:59:46;27.02;57.46
65369;HTU21D;51970;53.484;49.488;2023-08-06T02:02:12;27.42;56.32
65369;HTU21D;51970;53.484;49.488;2023-08-06T02:04:38;27.81;55.04
65369;HTU21D;51970;53.484;49.488;2023-08-06T02:07:04;28.01;54.29
65369;HTU21D;51970;53.484;49.488;2023-08-06T02:09:31;28.02;54.26
65369;HTU21D;51970;53.484;49.488;2023-08-06T02:11:57;28.18;53.67
65369;HTU21D;51970;53.484;49.488;2023-08-06T02:14:23;27.99;54.09
65369;HTU21D;51970;53.484;49.488;2023-08-06T02:16:49;28.10;53.83
65369;HTU21D;51970;53.484;49.488;2023-08-06T02:19:16;28.32;53.09
65369;HTU21D;51970;53.484;49.488;2023-08-06T02:21:42;28.29;53.06
65369;HTU21D;51970;53.484;49.488;2023-08-06T02:24:08;28.16;53.46
65369;HTU21D;51970;53.484;49.488;2023-08-06T02:26:34;28.42;52.59
65369;HTU21D;51970;53.484;49.488;2023-08-06T02:29:00;28.02;53.68
65369;HTU21D;51970;53.484;49.488;2023-08-06T02:31:26;27.99;53.81
65369;HTU21D;51970;53.484;49.488;2023-08-06T02:33:58;28.19;53.20
65369;HTU21D;51970;53.484;49.488;2023-08-06T02:36:24;28.37;52.74
65369;HTU21D;51970;53.484;49.488;2023-08-06T02:38:50;28.53;52.10
65369;HTU21D;51970;53.484;49.488;2023-08-06T02:41:16;28.32;52.77
65369;HTU21D;51970;53.484;49.488;2023-08-06T02:43:42;28.50;52.07
65369;HTU21D;51970;53.484;49.488;2023-08-06T02:46:08;28.59;51.82
65369;HTU21D;51970;53.484;49.488;2023-08-06T02:48:34;28.90;50.95
65369;HTU21D;51970;53.484;49.488;2023-08-06T02:51:00;29.43;49.60
65369;HTU21D;51970;53.484;49.488;2023-08-06T02:53:26;29.77;48.60
65369;HTU21D;51970;53.484;49.488;2023-08-06T02:55:52;29.75;48.15
65369;HTU21D;51970;53.484;49.488;2023-08-06T02:58:19;29.54;48.35
65369;HTU21D;51970;53.484;49.488;2023-08-06T03:01:05;29.13;49.23
65369;HTU21D;51970;53.484;49.488;2023-08-06T03:03:33;29.43;48.20
65369;HTU21D;51970;53.484;49.488;2023-08-06T03:05:59;29.41;48.13
65369;HTU21D;51970;53.484;49.488;2023-08-06T03:08:26;29.47;47.54
65369;HTU21D;51970;53.484;49.488;2023-08-06T03:10:52;29.21;48.15
65369;HTU21D;51970;53.484;49.488;2023-08-06T03:13:18;29.59;47.38
65369;HTU21D;51970;53.484;49.488;2023-08-06T03:16:00;30.38;45.22
65369;HTU21D;51970;53.484;49.488;2023-08-06T03:18:26;30.99;43.20
65369;HTU21D;51970;53.484;49.488;2023-08-06T03:20:52;30.70;43.60
65369;HTU21D;51970;53.484;49.488;2023-08-06T03:23:19;30.10;45.41
65369;HTU21D;51970;53.484;49.488;2023-08-06T03:25:45;29.65;46.38
65369;HTU21D;51970;53.484;49.488;2023-08-06T03:28:12;29.87;45.73
65369;HTU21D;51970;53.484;49.488;2023-08-06T03:30:38;29.86;46.09
65369;HTU21D;51970;53.484;49.488;2023-08-06T03:33:04;28.65;48.47
65369;HTU21D;51970;53.484;49.488;2023-08-06T03:35:36;26.90;53.56
65369;HTU21D;51970;53.484;49.488;2023-08-06T03:38:02;26.01;56.38
65369;HTU21D;51970;53.484;49.488;2023-08-06T03:40:28;25.63;57.68
65369;HTU21D;51970;53.484;49.488;2023-08-06T03:42:54;25.54;58.17
65369;HTU21D;51970;53.484;49.488;2023-08-06T03:45:20;25.74;57.93
65369;HTU21D;51970;53.484;49.488;2023-08-06T03:47:46;26.03;56.84
65369;HTU21D;51970;53.484;49.488;2023-08-06T03:50:12;26.08;56.90
65369;HTU21D;51970;53.484;49.488;2023-08-06T03:52:38;26.05;56.32
65369;HTU21D;51970;53.484;49.488;2023-08-06T03:55:05;26.01;56.68
65369;HTU21D;51970;53.484;49.488;2023-08-06T03:57:31;26.08;56.35
65369;HTU21D;51970;53.484;49.488;2023-08-06T03:59:57;26.19;55.73
65369;HTU21D;51970;53.484;49.488;2023-08-06T04:02:23;26.33;55.20
65369;HTU21D;51970;53.484;49.488;2023-08-06T04:04:49;26.45;54.33
65369;HTU21D;51970;53.484;49.488;2023-08-06T04:07:15;26.57;53.84
65369;HTU21D;51970;53.484;49.488;2023-08-06T04:10:00;26.62;53.04
65369;HTU21D;51970;53.484;49.488;2023-08-06T04:12:27;26.60;53.51
65369;HTU21D;51970;53.484;49.488;2023-08-06T04:14:53;26.80;52.75
65369;HTU21D;51970;53.484;49.488;2023-08-06T04:17:20;26.83;52.46
65369;HTU21D;51970;53.484;49.488;2023-08-06T04:19:51;26.82;52.14
65369;HTU21D;51970;53.484;49.488;2023-08-06T04:22:17;26.90;52.06
65369;HTU21D;51970;53.484;49.488;2023-08-06T04:24:44;27.06;51.81
65369;HTU21D;51970;53.484;49.488;2023-08-06T04:27:10;27.19;50.72
65369;HTU21D;51970;53.484;49.488;2023-08-06T04:29:37;27.24;50.15
65369;HTU21D;51970;53.484;49.488;2023-08-06T04:32:07;27.15;49.73
65369;HTU21D;51970;53.484;49.488;2023-08-06T04:34:39;27.21;50.02
65369;HTU21D;51970;53.484;49.488;2023-08-06T04:37:05;27.22;49.77
65369;HTU21D;51970;53.484;49.488;2023-08-06T04:39:31;27.28;48.95
65369;HTU21D;51970;53.484;49.488;2023-08-06T04:41:57;27.30;49.39
65369;HTU21D;51970;53.484;49.488;2023-08-06T04:44:23;27.45;48.50
65369;HTU21D;51970;53.484;49.488;2023-08-06T04:46:50;27.47;48.12
65369;HTU21D;51970;53.484;49.488;2023-08-06T04:49:17;27.43;47.45
65369;HTU21D;51970;53.484;49.488;2023-08-06T04:51:43;27.52;47.56
65369;HTU21D;51970;53.484;49.488;2023-08-06T04:54:09;27.52;47.23
65369;HTU21D;51970;53.484;49.488;2023-08-06T04:56:35;27.53;45.81
65369;HTU21D;51970;53.484;49.488;2023-08-06T04:59:01;27.64;45.57
65369;HTU21D;51970;53.484;49.488;2023-08-06T05:01:27;27.67;45.84
65369;HTU21D;51970;53.484;49.488;2023-08-06T05:03:54;27.82;45.28
65369;HTU21D;51970;53.484;49.488;2023-08-06T05:06:20;27.86;45.36
65369;HTU21D;51970;53.484;49.488;2023-08-06T05:08:46;27.84;45.25
65369;HTU21D;51970;53.484;49.488;2023-08-06T05:11:12;27.90;45.13
65369;HTU21D;51970;53.484;49.488;2023-08-06T05:13:38;28.11;44.41
65369;HTU21D;51970;53.484;49.488;2023-08-06T05:16:04;27.98;42.76
65369;HTU21D;51970;53.484;49.488;2023-08-06T05:18:30;27.88;43.37
65369;HTU21D;51970;53.484;49.488;2023-08-06T05:20:56;28.10;43.03
65369;HTU21D;51970;53.484;49.488;2023-08-06T05:23:23;28.16;42.52
65369;HTU21D;51970;53.484;49.488;2023-08-06T05:25:49;28.32;42.13
65369;HTU21D;51970;53.484;49.488;2023-08-06T05:28:15;28.19;42.41
65369;HTU21D;51970;53.484;49.488;2023-08-06T05:30:41;28.25;42.27
65369;HTU21D;51970;53.484;49.488;2023-08-06T05:33:07;28.28;41.94
65369;HTU21D;51970;53.484;49.488;2023-08-06T05:35:41;28.18;43.48
65369;HTU21D;51970;53.484;49.488;2023-08-06T05:38:07;28.10;44.18
65369;HTU21D;51970;53.484;49.488;2023-08-06T05:40:34;28.24;44.29
65369;HTU21D;51970;53.484;49.488;2023-08-06T05:43:00;28.41;44.19
65369;HTU21D;51970;53.484;49.488;2023-08-06T05:45:26;28.48;42.45
65369;HTU21D;51970;53.484;49.488;2023-08-06T05:47:52;28.20;43.57
65369;HTU21D;51970;53.484;49.488;2023-08-06T05:50:20;28.05;43.81
65369;HTU21D;51970;53.484;49.488;2023-08-06T05:52:46;28.08;43.80
65369;HTU21D;51970;53.484;49.488;2023-08-06T05:55:12;28.35;42.87
65369;HTU21D;51970;53.484;49.488;2023-08-06T05:57:38;28.29;43.26
65369;HTU21D;51970;53.484;49.488;2023-08-06T06:00:04;28.37;42.77
65369;HTU21D;51970;53.484;49.488;2023-08-06T06:02:31;28.55;42.69
65369;HTU21D;51970;53.484;49.488;2023-08-06T06:04:57;28.56;42.23
65369;HTU21D;51970;53.484;49.488;2023-08-06T06:07:23;28.55;42.63
65369;HTU21D;51970;53.484;49.488;2023-08-06T06:09:50;28.55;43.25
65369;HTU21D;51970;53.484;49.488;2023-08-06T06:12:16;28.69;42.87
65369;HTU21D;51970;53.484;49.488;2023-08-06T06:14:42;28.71;41.90
65369;HTU21D;51970;53.484;49.488;2023-08-06T06:17:08;28.76;42.23
65369;HTU21D;51970;53.484;49.488;2023-08-06T06:19:34;28.75;40.66
65369;HTU21D;51970;53.484;49.488;2023-08-06T06:22:00;28.95;40.62
65369;HTU21D;51970;53.484;49.488;2023-08-06T06:24:26;29.16;39.01
65369;HTU21D;51970;53.484;49.488;2023-08-06T06:26:52;29.09;38.68
65369;HTU21D;51970;53.484;49.488;2023-08-06T06:29:18;29.26;37.88
65369;HTU21D;51970;53.484;49.488;2023-08-06T06:31:44;29.36;38.17
65369;HTU21D;51970;53.484;49.488;2023-08-06T06:34:15;29.37;37.64
65369;HTU21D;51970;53.484;49.488;2023-08-06T06:36:42;29.31;36.32
65369;HTU21D;51970;53.484;49.488;2023-08-06T06:39:08;29.28;37.44
65369;HTU21D;51970;53.484;49.488;2023-08-06T06:41:34;29.19;38.09
65369;HTU21D;51970;53.484;49.488;2023-08-06T06:44:00;29.21;38.08
65369;HTU21D;51970;53.484;49.488;2023-08-06T06:46:26;29.36;37.88
65369;HTU21D;51970;53.484;49.488;2023-08-06T06:48:52;29.31;38.08
65369;HTU21D;51970;53.484;49.488;2023-08-06T06:51:18;29.39;38.37
65369;HTU21D;51970;53.484;49.488;2023-08-06T06:53:44;29.54;38.03
65369;HTU21D;51970;53.484;49.488;2023-08-06T06:56:10;29.79;37.87
65369;HTU21D;51970;53.484;49.488;2023-08-06T06:58:36;29.64;38.30
65369;HTU21D;51970;53.484;49.488;2023-08-06T07:01:04;29.71;38.27
65369;HTU21D;51970;53.484;49.488;2023-08-06T07:03:30;29.92;38.30
65369;HTU21D;51970;53.484;49.488;2023-08-06T07:05:59;29.80;38.12
65369;HTU21D;51970;53.484;49.488;2023-08-06T07:08:26;29.81;38.56
65369;HTU21D;51970;53.484;49.488;2023-08-06T07:11:00;29.78;38.78
65369;HTU21D;51970;53.484;49.488;2023-08-06T07:13:27;29.68;39.38
65369;HTU21D;51970;53.484;49.488;2023-08-06T07:15:54;29.54;39.94
65369;HTU21D;51970;53.484;49.488;2023-08-06T07:18:21;29.76;38.57
65369;HTU21D;51970;53.484;49.488;2023-08-06T07:20:51;29.75;37.66
65369;HTU21D;51970;53.484;49.488;2023-08-06T07:23:18;29.72;37.22
65369;HTU21D;51970;53.484;49.488;2023-08-06T07:25:46;29.88;36.55
65369;HTU21D;51970;53.484;49.488;2023-08-06T07:28:13;29.85;36.98
65369;HTU21D;51970;53.484;49.488;2023-08-06T07:30:40;30.10;37.46
65369;HTU21D;51970;53.484;49.488;2023-08-06T07:33:06;30.16;37.63
65369;HTU21D;51970;53.484;49.488;2023-08-06T07:35:38;30.21;36.21
65369;HTU21D;51970;53.484;49.488;2023-08-06T07:38:04;30.19;34.56
65369;HTU21D;51970;53.484;49.488;2023-08-06T07:40:30;30.04;36.47
65369;HTU21D;51970;53.484;49.488;2023-08-06T07:42:56;30.01;37.24
65369;HTU21D;51970;53.484;49.488;2023-08-06T07:45:22;30.13;36.76
65369;HTU21D;51970;53.484;49.488;2023-08-06T07:47:48;30.19;34.61
65369;HTU21D;51970;53.484;49.488;2023-08-06T07:50:14;30.05;35.26
65369;HTU21D;51970;53.484;49.488;2023-08-06T07:52:41;29.90;35.65
65369;HTU21D;51970;53.484;49.488;2023-08-06T07:55:07;30.04;35.19
65369;HTU21D;51970;53.484;49.488;2023-08-06T07:57:33;30.42;34.74
65369;HTU21D;51970;53.484;49.488;2023-08-06T08:00:00;30.34;35.30
65369;HTU21D;51970;53.484;49.488;2023-08-06T08:02:27;30.21;36.07
65369;HTU21D;51970;53.484;49.488;2023-08-06T08:04:53;30.33;35.69
65369;HTU21D;51970;53.484;49.488;2023-08-06T08:07:19;30.40;34.53
65369;HTU21D;51970;53.484;49.488;2023-08-06T08:09:45;30.35;35.07
65369;HTU21D;51970;53.484;49.488;2023-08-06T08:12:11;30.42;35.52
65369;HTU21D;51970;53.484;49.488;2023-08-06T08:14:37;30.50;35.88
65369;HTU21D;51970;53.484;49.488;2023-08-06T08:17:04;30.59;36.04
65369;HTU21D;51970;53.484;49.488;2023-08-06T08:19:34;30.63;35.59
65369;HTU21D;51970;53.484;49.488;2023-08-06T08:22:00;30.65;34.81
65369;HTU21D;51970;53.484;49.488;2023-08-06T08:24:26;30.57;34.39
65369;HTU21D;51970;53.484;49.488;2023-08-06T08:26:53;30.48;34.66
65369;HTU21D;51970;53.484;49.488;2023-08-06T08:29:20;30.54;35.23
65369;HTU21D;51970;53.484;49.488;2023-08-06T08:31:46;30.75;33.96
65369;HTU21D;51970;53.484;49.488;2023-08-06T08:34:20;30.74;34.02
65369;HTU21D;51970;53.484;49.488;2023-08-06T08:36:47;30.95;33.35
65369;HTU21D;51970;53.484;49.488;2023-08-06T08:39:13;30.86;33.97
65369;HTU21D;51970;53.484;49.488;2023-08-06T08:41:40;31.07;32.89
65369;HTU21D;51970;53.484;49.488;2023-08-06T08:44:09;31.13;33.21
65369;HTU21D;51970;53.484;49.488;2023-08-06T08:46:37;31.02;33.61
65369;HTU21D;51970;53.484;49.488;2023-08-06T08:49:04;30.87;34.02
65369;HTU21D;51970;53.484;49.488;2023-08-06T08:51:31;30.74;34.63
65369;HTU21D;51970;53.484;49.488;2023-08-06T08:53:58;31.09;32.29
65369;HTU21D;51970;53.484;49.488;2023-08-06T08:56:24;31.37;31.54
65369;HTU21D;51970;53.484;49.488;2023-08-06T08:58:51;31.36;31.73
65369;HTU21D;51970;53.484;49.488;2023-08-06T09:01:19;31.34;31.44
65369;HTU21D;51970;53.484;49.488;2023-08-06T09:03:46;31.26;31.54
65369;HTU21D;51970;53.484;49.488;2023-08-06T09:06:13;31.08;31.86
65369;HTU21D;51970;53.484;49.488;2023-08-06T09:08:46;31.08;31.80
65369;HTU21D;51970;53.484;49.488;2023-08-06T09:11:13;31.29;29.63
65369;HTU21D;51970;53.484;49.488;2023-08-06T09:13:39;31.55;29.80
65369;HTU21D;51970;53.484;49.488;2023-08-06T09:16:05;31.59;30.60
65369;HTU21D;51970;53.484;49.488;2023-08-06T09:18:31;31.41;31.38
65369;HTU21D;51970;53.484;49.488;2023-08-06T09:20:58;31.63;30.59
65369;HTU21D;51970;53.484;49.488;2023-08-06T09:23:29;31.85;29.74
65369;HTU21D;51970;53.484;49.488;2023-08-06T09:25:57;31.89;30.48
65369;HTU21D;51970;53.484;49.488;2023-08-06T09:28:23;31.86;31.12
65369;HTU21D;51970;53.484;49.488;2023-08-06T09:30:50;31.80;29.97
65369;HTU21D;51970;53.484;49.488;2023-08-06T09:33:22;31.57;29.95
65369;HTU21D;51970;53.484;49.488;2023-08-06T09:35:55;31.73;30.54
65369;HTU21D;51970;53.484;49.488;2023-08-06T09:38:28;32.05;30.37
65369;HTU21D;51970;53.484;49.488;2023-08-06T09:41:08;32.12;30.98
65369;HTU21D;51970;53.484;49.488;2023-08-06T09:43:41;31.67;32.21
65369;HTU21D;51970;53.484;49.488;2023-08-06T09:46:13;31.97;31.73
65369;HTU21D;51970;53.484;49.488;2023-08-06T09:48:46;32.25;31.37
65369;HTU21D;51970;53.484;49.488;2023-08-06T09:51:17;32.07;32.27
65369;HTU21D;51970;53.484;49.488;2023-08-06T09:53:49;31.54;33.28
65369;HTU21D;51970;53.484;49.488;2023-08-06T09:56:21;31.20;33.35
65369;HTU21D;51970;53.484;49.488;2023-08-06T09:58:52;31.36;33.54
65369;HTU21D;51970;53.484;49.488;2023-08-06T10:01:24;31.75;33.04
65369;HTU21D;51970;53.484;49.488;2023-08-06T10:03:57;32.07;32.77
65369;HTU21D;51970;53.484;49.488;2023-08-06T10:06:29;32.30;31.62
65369;HTU21D;51970;53.484;49.488;2023-08-06T10:09:01;32.25;31.25
65369;HTU21D;51970;53.484;49.488;2023-08-06T10:11:33;31.99;30.57
65369;HTU21D;51970;53.484;49.488;2023-08-06T10:14:10;32.00;31.70
65369;HTU21D;51970;53.484;49.488;2023-08-06T10:16:43;32.35;31.65
65369;HTU21D;51970;53.484;49.488;2023-08-06T10:19:15;32.66;31.54
65369;HTU21D;51970;53.484;49.488;2023-08-06T10:22:13;32.54;31.24
65369;HTU21D;51970;53.484;49.488;2023-08-06T10:24:57;32.42;32.76
65369;HTU21D;51970;53.484;49.488;2023-08-06T10:27:34;32.42;32.91
65369;HTU21D;51970;53.484;49.488;2023-08-06T10:30:26;31.90;33.68
65369;HTU21D;51970;53.484;49.488;2023-08-06T10:33:03;31.33;34.72
65369;HTU21D;51970;53.484;49.488;2023-08-06T10:35:42;30.93;35.32
65369;HTU21D;51970;53.484;49.488;2023-08-06T10:38:20;31.08;34.82
65369;HTU21D;51970;53.484;49.488;2023-08-06T10:43:31;31.82;31.85
65369;HTU21D;51970;53.484;49.488;2023-08-06T10:46:00;32.10;31.76
65369;HTU21D;51970;53.484;49.488;2023-08-06T10:48:40;31.98;32.44
65369;HTU21D;51970;53.484;49.488;2023-08-06T10:51:09;31.42;33.68
65369;HTU21D;51970;53.484;49.488;2023-08-06T10:53:36;31.28;33.57
65369;HTU21D;51970;53.484;49.488;2023-08-06T10:56:15;31.56;32.51
65369;HTU21D;51970;53.484;49.488;2023-08-06T10:58:42;32.02;31.35
65369;HTU21D;51970;53.484;49.488;2023-08-06T11:01:09;32.32;30.14
65369;HTU21D;51970;53.484;49.488;2023-08-06T11:03:37;32.49;31.09
65369;HTU21D;51970;53.484;49.488;2023-08-06T11:06:04;32.56;31.55
65369;HTU21D;51970;53.484;49.488;2023-08-06T11:08:36;32.10;32.06
65369;HTU21D;51970;53.484;49.488;2023-08-06T11:11:14;31.88;31.88
65369;HTU21D;51970;53.484;49.488;2023-08-06T11:13:40;31.95;31.67
65369;HTU21D;51970;53.484;49.488;2023-08-06T11:16:07;31.95;31.42
65369;HTU21D;51970;53.484;49.488;2023-08-06T11:18:34;32.10;31.77
65369;HTU21D;51970;53.484;49.488;2023-08-06T11:21:01;32.15;31.89
65369;HTU21D;51970;53.484;49.488;2023-08-06T11:23:28;32.23;31.82
65369;HTU21D;51970;53.484;49.488;2023-08-06T11:25:55;32.18;31.06
65369;HTU21D;51970;53.484;49.488;2023-08-06T11:28:22;32.20;30.61
65369;HTU21D;51970;53.484;49.488;2023-08-06T11:30:49;32.14;30.73
65369;HTU21D;51970;53.484;49.488;2023-08-06T11:33:23;32.13;30.52
65369;HTU21D;51970;53.484;49.488;2023-08-06T11:35:52;32.14;30.84
65369;HTU21D;51970;53.484;49.488;2023-08-06T11:38:18;32.10;31.13
65369;HTU21D;51970;53.484;49.488;2023-08-06T11:40:45;31.82;31.41
65369;HTU21D;51970;53.484;49.488;2023-08-06T11:43:14;31.33;31.88
65369;HTU21D;51970;53.484;49.488;2023-08-06T11:45:41;30.89;32.77
65369;HTU21D;51970;53.484;49.488;2023-08-06T11:48:07;31.04;31.84
65369;HTU21D;51970;53.484;49.488;2023-08-06T11:50:37;31.38;30.90
65369;HTU21D;51970;53.484;49.488;2023-08-06T11:53:06;31.74;29.89
65369;HTU21D;51970;53.484;49.488;2023-08-06T11:55:33;31.70;30.11
65369;HTU21D;51970;53.484;49.488;2023-08-06T11:58:03;31.82;30.36
65369;HTU21D;51970;53.484;49.488;2023-08-06T12:00:30;31.72;29.74
65369;HTU21D;51970;53.484;49.488;2023-08-06T12:02:57;31.84;29.26
65369;HTU21D;51970;53.484;49.488;2023-08-06T12:05:28;31.92;28.98
65369;HTU21D;51970;53.484;49.488;2023-08-06T12:07:57;31.68;29.71
65369;HTU21D;51970;53.484;49.488;2023-08-06T12:10:28;31.69;29.30
65369;HTU21D;51970;53.484;49.488;2023-08-06T12:12:55;31.71;29.34
65369;HTU21D;51970;53.484;49.488;2023-08-06T12:15:22;31.72;29.24
65369;HTU21D;51970;53.484;49.488;2023-08-06T12:17:49;31.75;29.25
65369;HTU21D;51970;53.484;49.488;2023-08-06T12:20:15;31.53;29.39
65369;HTU21D;51970;53.484;49.488;2023-08-06T12:22:42;31.67;29.84
65369;HTU21D;51970;53.484;49.488;2023-08-06T12:25:10;31.74;30.15
65369;HTU21D;51970;53.484;49.488;2023-08-06T12:27:40;31.76;30.25
65369;HTU21D;51970;53.484;49.488;2023-08-06T12:30:08;31.93;30.23
65369;HTU21D;51970;53.484;49.488;2023-08-06T12:32:38;32.04;29.80
65369;HTU21D;51970;53.484;49.488;2023-08-06T12:35:05;31.87;30.09
65369;HTU21D;51970;53.484;49.488;2023-08-06T12:37:33;32.01;29.77
65369;HTU21D;51970;53.484;49.488;2023-08-06T12:39:59;32.16;29.71
65369;HTU21D;51970;53.484;49.488;2023-08-06T12:42:25;31.98;30.86
65369;HTU21D;51970;53.484;49.488;2023-08-06T12:44:52;31.93;31.22
65369;HTU21D;51970;53.484;49.488;2023-08-06T12:47:18;32.04;31.03
65369;HTU21D;51970;53.484;49.488;2023-08-06T12:49:45;32.03;31.15
65369;HTU21D;51970;53.484;49.488;2023-08-06T12:52:12;32.05;30.99
65369;HTU21D;51970;53.484;49.488;2023-08-06T12:54:41;31.84;31.25
65369;HTU21D;51970;53.484;49.488;2023-08-06T12:57:08;31.52;31.63
65369;HTU21D;51970;53.484;49.488;2023-08-06T12:59:34;31.64;31.73
65369;HTU21D;51970;53.484;49.488;2023-08-06T13:02:03;31.72;31.37
65369;HTU21D;51970;53.484;49.488;2023-08-06T13:04:29;31.71;31.32
65369;HTU21D;51970;53.484;49.488;2023-08-06T13:06:56;31.78;31.00
65369;HTU21D;51970;53.484;49.488;2023-08-06T13:09:22;31.84;31.03
65369;HTU21D;51970;53.484;49.488;2023-08-06T13:11:49;31.81;30.84
65369;HTU21D;51970;53.484;49.488;2023-08-06T13:14:16;31.59;31.36
65369;HTU21D;51970;53.484;49.488;2023-08-06T13:16:43;31.63;31.03
65369;HTU21D;51970;53.484;49.488;2023-08-06T13:19:10;31.52;31.16
65369;HTU21D;51970;53.484;49.488;2023-08-06T13:24:08;31.46;31.67
65369;HTU21D;51970;53.484;49.488;2023-08-06T13:26:35;31.54;31.29
65369;HTU21D;51970;53.484;49.488;2023-08-06T13:29:02;31.44;31.19
65369;HTU21D;51970;53.484;49.488;2023-08-06T13:31:28;31.37;31.15
65369;HTU21D;51970;53.484;49.488;2023-08-06T13:33:55;31.42;30.80
65369;HTU21D;51970;53.484;49.488;2023-08-06T13:36:27;31.37;30.83
65369;HTU21D;51970;53.484;49.488;2023-08-06T13:38:53;31.49;30.97
65369;HTU21D;51970;53.484;49.488;2023-08-06T13:41:19;31.55;30.20
65369;HTU21D;51970;53.484;49.488;2023-08-06T13:43:46;31.27;30.29
65369;HTU21D;51970;53.484;49.488;2023-08-06T13:46:12;31.21;30.61
65369;HTU21D;51970;53.484;49.488;2023-08-06T13:48:47;31.24;30.69
65369;HTU21D;51970;53.484;49.488;2023-08-06T13:51:13;31.14;31.06
65369;HTU21D;51970;53.484;49.488;2023-08-06T13:53:40;31.20;30.92
65369;HTU21D;51970;53.484;49.488;2023-08-06T13:56:06;31.25;31.23
65369;HTU21D;51970;53.484;49.488;2023-08-06T13:58:33;31.13;31.52
65369;HTU21D;51970;53.484;49.488;2023-08-06T14:00:59;31.09;31.69
65369;HTU21D;51970;53.484;49.488;2023-08-06T14:03:25;31.07;31.62
65369;HTU21D;51970;53.484;49.488;2023-08-06T14:05:51;31.04;31.67
65369;HTU21D;51970;53.484;49.488;2023-08-06T14:08:18;30.93;31.33
65369;HTU21D;51970;53.484;49.488;2023-08-06T14:10:44;30.84;31.70
65369;HTU21D;51970;53.484;49.488;2023-08-06T14:13:11;30.83;31.88
65369;HTU21D;51970;53.484;49.488;2023-08-06T14:15:37;30.85;31.83
65369;HTU21D;51970;53.484;49.488;2023-08-06T14:18:06;30.93;31.55
65369;HTU21D;51970;53.484;49.488;2023-08-06T14:20:34;31.37;31.00
65369;HTU21D;51970;53.484;49.488;2023-08-06T14:23:00;31.65;30.13
65369;HTU21D;51970;53.484;49.488;2023-08-06T14:25:27;31.69;30.21
65369;HTU21D;51970;53.484;49.488;2023-08-06T14:27:53;31.72;30.25
65369;HTU21D;51970;53.484;49.488;2023-08-06T14:30:19;31.85;30.15
65369;HTU21D;51970;53.484;49.488;2023-08-06T14:32:45;32.05;30.06
65369;HTU21D;51970;53.484;49.488;2023-08-06T14:35:11;32.12;29.97
65369;HTU21D;51970;53.484;49.488;2023-08-06T14:37:37;32.10;29.82
65369;HTU21D;51970;53.484;49.488;2023-08-06T14:40:05;32.43;29.48
65369;HTU21D;51970;53.484;49.488;2023-08-06T14:42:32;32.56;29.17
65369;HTU21D;51970;53.484;49.488;2023-08-06T14:44:58;32.38;29.51
65369;HTU21D;51970;53.484;49.488;2023-08-06T14:47:24;32.22;29.93
65369;HTU21D;51970;53.484;49.488;2023-08-06T14:49:50;32.09;30.27
65369;HTU21D;51970;53.484;49.488;2023-08-06T14:52:16;32.32;30.00
65369;HTU21D;51970;53.484;49.488;2023-08-06T14:54:42;32.09;30.13
65369;HTU21D;51970;53.484;49.488;2023-08-06T14:57:12;30.96;32.21
65369;HTU21D;51970;53.484;49.488;2023-08-06T14:59:39;30.47;33.30
65369;HTU21D;51970;53.484;49.488;2023-08-06T15:02:06;30.26;33.90
65369;HTU21D;51970;53.484;49.488;2023-08-06T15:04:32;30.17;34.22
65369;HTU21D;51970;53.484;49.488;2023-08-06T15:06:58;30.12;34.37
65369;HTU21D;51970;53.484;49.488;2023-08-06T15:09:24;30.06;34.44
65369;HTU21D;51970;53.484;49.488;2023-08-06T15:11:50;30.03;34.16
65369;HTU21D;51970;53.484;49.488;2023-08-06T15:14:16;29.97;34.48
65369;HTU21D;51970;53.484;49.488;2023-08-06T15:16:42;29.93;34.65
65369;HTU21D;51970;53.484;49.488;2023-08-06T15:19:08;29.85;34.63